createdAt,value
2023-04-02T00:02:26.910Z,100258.75
2023-04-02T00:05:15.799Z,100267.03
2023-04-02T00:08:05.430Z,100271.34
2023-04-02T00:10:58.041Z,100278.91
2023-04-02T00:13:46.893Z,100284.28
2023-04-02T00:16:33.061Z,100291.03
2023-04-02T00:19:44.043Z,100291.53
2023-04-02T00:22:31.802Z,100302.53
2023-04-02T00:25:17.718Z,100310.97
2023-04-02T00:28:04.609Z,100320.78
2023-04-02T00:30:56.402Z,100319.75
2023-04-02T00:33:44.077Z,100337.19
2023-04-02T00:36:31.959Z,100338.22
2023-04-02T00:39:24.440Z,100345.44
2023-04-02T00:42:13.401Z,100341.84
2023-04-02T00:45:00.074Z,100355.47
2023-04-02T00:47:45.838Z,100360.47
2023-04-02T00:50:39.566Z,100357.81
2023-04-02T00:53:29.371Z,100374.69
2023-04-02T00:56:25.885Z,100369.69
2023-04-02T00:59:30.349Z,100384.69
2023-04-02T01:02:16.275Z,100382.88
2023-04-02T01:05:20.960Z,100385.53
2023-04-02T01:08:20.578Z,100397.63
2023-04-02T01:11:15.152Z,100401.13
2023-04-02T01:14:20.011Z,100399.47
2023-04-02T01:17:33.431Z,100407.78
2023-04-02T01:20:39.124Z,100412.66
2023-04-02T01:23:39.684Z,100411.28
2023-04-02T01:26:49.761Z,100419.81
2023-04-02T01:29:49.244Z,100415.41
2023-04-02T01:32:35.992Z,100437.00
2023-04-02T01:35:23.955Z,100450.81
2023-04-02T01:38:20.834Z,100448.25
2023-04-02T01:41:17.876Z,100456.25
2023-04-02T01:44:09.874Z,100463.81
2023-04-02T01:46:55.603Z,100468.00
2023-04-02T01:49:43.384Z,100477.16
2023-04-02T01:52:40.362Z,100468.31
2023-04-02T01:56:02.958Z,100482.59
2023-04-02T01:58:49.795Z,100481.38
2023-04-02T02:01:53.643Z,100489.84
2023-04-02T02:04:40.430Z,100493.53
2023-04-02T02:07:26.360Z,100505.94
2023-04-02T02:10:17.383Z,100509.84
2023-04-02T02:13:03.555Z,100510.00
2023-04-02T02:15:49.601Z,100514.50
2023-04-02T02:18:35.562Z,100523.28
2023-04-02T02:21:29.958Z,100531.72
2023-04-02T02:24:31.627Z,100524.31
2023-04-02T02:27:22.959Z,100537.53
2023-04-02T02:30:23.797Z,100535.16
2023-04-02T02:33:52.931Z,100538.06
2023-04-02T02:36:47.438Z,100540.44
2023-04-02T02:40:01.446Z,100548.13
2023-04-02T02:42:55.525Z,100564.22
2023-04-02T02:45:43.180Z,100556.19
2023-04-02T02:48:37.437Z,100563.88
2023-04-02T02:51:31.028Z,100579.41
2023-04-02T02:54:18.394Z,100570.19
2023-04-02T02:57:11.295Z,100567.63
2023-04-02T02:59:59.918Z,100574.00
2023-04-02T03:02:47.580Z,100583.38
2023-04-02T03:05:33.708Z,100599.13
2023-04-02T03:08:33.884Z,100600.50
2023-04-02T03:11:32.326Z,100603.97
2023-04-02T03:14:35.633Z,100613.53
2023-04-02T03:17:34.665Z,100618.31
2023-04-02T03:20:38.194Z,100622.88
2023-04-02T03:23:35.596Z,100636.69
2023-04-02T03:26:32.944Z,100646.69
2023-04-02T03:30:03.458Z,100646.94
2023-04-02T03:32:54.219Z,100658.88
2023-04-02T03:36:03.212Z,100662.00
2023-04-02T03:39:12.518Z,100671.72
2023-04-02T03:42:10.175Z,100676.84
2023-04-02T03:45:01.753Z,100677.47
2023-04-02T03:47:59.746Z,100699.91
2023-04-02T03:51:10.278Z,100690.84
2023-04-02T03:53:56.711Z,100696.19
2023-04-02T03:56:45.637Z,100706.75
2023-04-02T03:59:44.595Z,100708.16
2023-04-02T04:02:54.838Z,100716.94
2023-04-02T04:05:56.447Z,100711.09
2023-04-02T04:08:47.195Z,100724.50
2023-04-02T04:11:45.783Z,100731.38
2023-04-02T04:14:33.001Z,100734.88
2023-04-02T04:17:30.691Z,100737.50
2023-04-02T04:20:27.927Z,100738.63
2023-04-02T04:23:23.911Z,100740.50
2023-04-02T04:26:12.440Z,100745.47
2023-04-02T04:29:30.675Z,100760.50
2023-04-02T04:32:29.500Z,100757.56
2023-04-02T04:35:40.073Z,100754.53
2023-04-02T04:38:33.424Z,100761.09
2023-04-02T04:41:28.397Z,100764.94
2023-04-02T04:44:20.474Z,100772.50
2023-04-02T04:47:17.510Z,100779.44
2023-04-02T04:50:37.722Z,100797.81
2023-04-02T04:53:27.204Z,100799.16
2023-04-02T04:56:19.507Z,100804.53
2023-04-02T04:59:20.787Z,100806.94
2023-04-02T05:02:15.920Z,100807.66
2023-04-02T05:05:07.126Z,100806.53
2023-04-02T05:08:29.919Z,100824.72
2023-04-02T05:11:47.637Z,100821.00
2023-04-02T05:14:46.011Z,100832.63
2023-04-02T05:18:02.494Z,100836.63
2023-04-02T05:21:08.915Z,100840.72
2023-04-02T05:24:27.121Z,100844.53
2023-04-02T05:27:15.675Z,100852.25
2023-04-02T05:30:07.167Z,100845.72
2023-04-02T05:33:07.225Z,100858.28
2023-04-02T05:36:08.180Z,100856.19
2023-04-02T05:38:55.803Z,100869.63
2023-04-02T05:41:44.923Z,100879.13
2023-04-02T05:44:34.041Z,100877.19
2023-04-02T05:47:25.967Z,100880.72
2023-04-02T05:50:25.067Z,100887.97
2023-04-02T05:53:17.913Z,100896.50
2023-04-02T05:56:42.104Z,100904.97
2023-04-02T05:59:34.066Z,100905.84
2023-04-02T06:02:22.159Z,100920.13
2023-04-02T06:05:14.527Z,100928.59
2023-04-02T06:08:14.634Z,100933.22
2023-04-02T06:11:07.364Z,100941.22
2023-04-02T06:13:52.725Z,100947.84
2023-04-02T06:16:38.188Z,100957.50
2023-04-02T06:19:35.805Z,100957.81
2023-04-02T06:22:27.288Z,100963.19
2023-04-02T06:25:32.149Z,100963.09
2023-04-02T06:28:21.362Z,100965.41
2023-04-02T06:31:12.497Z,100973.13
2023-04-02T06:33:58.069Z,100974.84
2023-04-02T06:36:45.181Z,100986.50
2023-04-02T06:39:30.526Z,100982.56
2023-04-02T06:42:27.305Z,100986.97
2023-04-02T06:45:28.427Z,100994.88
2023-04-02T06:48:18.136Z,100989.94
2023-04-02T06:51:12.972Z,100976.44
2023-04-02T06:53:58.071Z,100975.00
2023-04-02T06:56:48.682Z,100981.69
2023-04-02T06:59:34.163Z,100988.50
2023-04-02T07:02:28.942Z,100996.63
2023-04-02T07:05:14.235Z,100994.66
2023-04-02T07:07:59.376Z,100992.16
2023-04-02T07:10:45.384Z,100987.69
2023-04-02T07:13:30.712Z,100989.06
2023-04-02T07:16:19.115Z,100998.88
2023-04-02T07:19:04.361Z,101013.47
2023-04-02T07:21:49.620Z,101017.31
2023-04-02T07:24:34.777Z,101001.59
2023-04-02T07:27:20.188Z,100994.81
2023-04-02T07:30:06.282Z,100994.81
2023-04-02T07:32:51.618Z,100994.53
2023-04-02T07:35:36.983Z,100996.56
2023-04-02T07:38:22.380Z,100999.69
2023-04-02T07:41:08.240Z,100984.63
2023-04-02T07:43:53.701Z,100983.91
2023-04-02T07:46:39.424Z,100990.47
2023-04-02T07:49:24.577Z,101009.63
2023-04-02T07:52:11.701Z,101009.72
2023-04-02T07:54:57.705Z,101024.28
2023-04-02T07:57:52.532Z,101030.34
2023-04-02T08:00:37.949Z,101027.63
2023-04-02T08:03:24.349Z,101034.00
2023-04-02T08:06:11.567Z,101042.78
2023-04-02T08:08:57.675Z,101036.63
2023-04-02T08:11:43.256Z,101024.75
2023-04-02T08:14:28.430Z,101034.00
2023-04-02T08:17:13.732Z,101020.97
2023-04-02T08:19:59.276Z,101037.66
2023-04-02T08:22:48.829Z,101057.63
2023-04-02T08:25:34.330Z,101048.03
2023-04-02T08:28:20.223Z,101052.66
2023-04-02T08:31:05.422Z,101066.06
2023-04-02T08:33:50.883Z,101063.19
2023-04-02T08:36:39.095Z,101043.53
2023-04-02T08:39:24.936Z,101042.41
2023-04-02T08:42:31.921Z,101018.47
2023-04-02T08:45:26.967Z,100993.28
2023-04-02T08:48:12.525Z,101016.88
2023-04-02T08:50:57.588Z,101021.75
2023-04-02T08:53:42.858Z,101018.13
2023-04-02T08:56:41.207Z,101015.03
2023-04-02T08:59:34.323Z,101020.69
2023-04-02T09:02:35.415Z,101030.25
2023-04-02T09:05:29.541Z,101017.28
2023-04-02T09:08:23.213Z,101017.84
2023-04-02T09:11:18.961Z,101019.69
2023-04-02T09:14:13.994Z,101016.25
2023-04-02T09:17:02.718Z,101034.19
2023-04-02T09:20:02.494Z,101048.34
2023-04-02T09:22:50.129Z,101036.44
2023-04-02T09:25:35.275Z,101022.94
2023-04-02T09:28:20.712Z,101036.56
2023-04-02T09:31:18.594Z,101052.19
2023-04-02T09:34:28.004Z,101057.41
2023-04-02T09:37:21.883Z,101027.84
2023-04-02T09:40:33.091Z,101034.09
2023-04-02T09:43:21.541Z,101027.28
2023-04-02T09:46:17.767Z,101002.28
2023-04-02T09:49:03.526Z,101017.78
2023-04-02T09:52:09.057Z,101026.31
2023-04-02T09:55:15.460Z,100979.88
2023-04-02T09:58:08.355Z,100991.44
2023-04-02T10:00:54.089Z,101005.53
2023-04-02T10:03:42.955Z,100967.56
2023-04-02T10:06:29.784Z,100929.84
2023-04-02T10:09:27.546Z,100902.88
2023-04-02T10:12:15.330Z,100900.44
2023-04-02T10:15:03.125Z,100916.25
2023-04-02T10:17:57.503Z,100937.25
2023-04-02T10:20:50.975Z,100967.28
2023-04-02T10:23:36.954Z,100986.34
2023-04-02T10:26:37.050Z,101013.06
2023-04-02T10:29:34.506Z,101043.38
2023-04-02T10:32:25.901Z,101077.97
2023-04-02T10:35:30.336Z,101084.44
2023-04-02T10:38:27.918Z,101028.22
2023-04-02T10:41:20.903Z,101073.19
2023-04-02T10:44:20.195Z,101052.31
2023-04-02T10:47:12.045Z,101089.16
2023-04-02T10:50:26.960Z,101033.75
2023-04-02T10:53:20.831Z,101030.59
2023-04-02T10:56:11.609Z,101044.31
2023-04-02T10:59:10.616Z,101045.81
2023-04-02T11:01:58.880Z,101078.56
2023-04-02T11:04:46.787Z,101123.66
2023-04-02T11:07:38.701Z,101110.84
2023-04-02T11:10:26.187Z,101136.13
2023-04-02T11:13:27.914Z,101123.34
2023-04-02T11:16:13.489Z,101075.28
2023-04-02T11:19:17.256Z,101099.31
2023-04-02T11:22:18.153Z,101139.50
2023-04-02T11:25:04.346Z,101146.34
2023-04-02T11:27:49.433Z,101147.53
2023-04-02T11:30:35.001Z,101151.97
2023-04-02T11:33:42.058Z,101172.03
2023-04-02T11:36:51.051Z,101169.38
2023-04-02T11:39:52.648Z,101173.66
2023-04-02T11:42:48.766Z,101177.50
2023-04-02T11:45:55.477Z,101166.75
2023-04-02T11:48:40.702Z,101221.34
2023-04-02T12:14:51.157Z,101135.28
2023-04-02T12:17:40.409Z,101192.59
2023-04-02T12:20:29.721Z,101105.91
2023-04-02T12:23:20.802Z,101140.25
2023-04-02T12:26:24.391Z,101180.22
2023-04-02T12:29:23.532Z,101168.25
2023-04-02T12:32:29.764Z,101075.44
2023-04-02T12:35:26.759Z,101071.31
2023-04-02T12:38:23.813Z,101133.34
2023-04-02T12:41:29.175Z,101210.69
2023-04-02T12:44:14.060Z,101175.06
2023-04-02T12:51:36.694Z,101234.00
2023-04-02T12:55:03.069Z,101276.78
2023-04-02T13:21:14.359Z,101269.59
2023-04-02T13:24:00.417Z,101305.03
2023-04-02T13:26:46.690Z,101201.25
2023-04-02T13:29:36.001Z,101256.31
2023-04-02T13:32:21.091Z,101227.56
2023-04-02T13:35:08.468Z,101214.63
2023-04-02T13:37:53.607Z,101244.34
2023-04-02T13:40:39.151Z,101300.53
2023-04-02T13:43:24.644Z,101292.47
2023-04-02T13:46:19.097Z,101313.53
2023-04-02T13:49:04.298Z,101302.38
2023-04-02T13:51:55.255Z,101355.75
2023-04-02T13:54:49.166Z,101282.66
2023-04-02T13:57:34.470Z,101256.56
2023-04-02T14:00:20.108Z,101282.06
2023-04-02T14:03:13.921Z,101336.66
2023-04-02T14:06:58.526Z,101349.72
2023-04-02T14:09:57.740Z,101252.56
2023-04-02T14:13:21.814Z,101280.91
2023-04-02T14:16:18.732Z,101330.47
2023-04-02T14:19:22.459Z,101321.38
2023-04-02T14:22:29.062Z,101371.50
2023-04-02T14:25:39.459Z,101364.19
2023-04-02T14:28:32.064Z,101329.63
2023-04-02T14:31:43.560Z,101294.81
2023-04-02T14:34:54.132Z,101316.69
2023-04-02T14:38:07.469Z,101319.41
2023-04-02T14:41:04.202Z,101253.13
2023-04-02T14:44:18.721Z,101301.72
2023-04-02T14:47:43.061Z,101328.16
2023-04-02T14:50:32.545Z,101308.22
2023-04-02T14:53:35.204Z,101345.06
2023-04-02T14:56:23.704Z,101328.81
2023-04-02T14:59:38.331Z,101285.25
2023-04-02T15:02:43.621Z,101309.06
2023-04-02T15:05:45.991Z,101337.59
2023-04-02T15:08:40.243Z,101302.75
2023-04-02T15:11:31.827Z,101297.59
2023-04-02T15:14:25.149Z,101334.59
2023-04-02T15:17:11.492Z,101293.53
2023-04-02T15:20:12.106Z,101250.94
2023-04-02T15:23:23.709Z,101318.81
2023-04-02T15:26:21.333Z,101359.44
2023-04-02T15:29:33.842Z,101368.03
2023-04-02T15:32:30.153Z,101323.97
2023-04-02T15:35:42.211Z,101335.41
2023-04-02T15:38:42.408Z,101391.13
2023-04-02T15:41:50.128Z,101330.34
2023-04-02T15:44:44.322Z,101351.63
2023-04-02T15:47:51.791Z,101327.72
2023-04-02T15:50:51.319Z,101340.94
2023-04-02T15:54:03.674Z,101356.88
2023-04-02T15:57:24.482Z,101352.41
2023-04-02T16:00:22.091Z,101390.13
2023-04-02T16:03:30.779Z,101381.16
2023-04-02T16:06:27.741Z,101431.34
2023-04-02T16:09:27.193Z,101430.53
2023-04-02T16:12:16.318Z,101324.19
2023-04-02T16:15:36.679Z,101332.25
2023-04-02T16:18:51.390Z,101370.31
2023-04-02T16:21:42.222Z,101324.16
2023-04-02T16:24:27.532Z,101326.06
2023-04-02T16:27:33.097Z,101336.38
2023-04-02T16:30:40.222Z,101392.97
2023-04-02T16:33:45.373Z,101404.78
2023-04-02T16:36:37.658Z,101445.44
2023-04-02T16:39:34.529Z,101431.97
2023-04-02T16:42:23.034Z,101422.41
2023-04-02T16:45:35.252Z,101447.34
2023-04-02T16:48:29.669Z,101461.75
2023-04-02T16:51:46.055Z,101463.97
2023-04-02T16:54:43.302Z,101452.91
2023-04-02T16:57:34.409Z,101467.06
2023-04-02T17:00:25.917Z,101464.81
2023-04-02T17:03:38.492Z,101441.81
2023-04-02T17:06:48.371Z,101456.69
2023-04-02T17:10:00.737Z,101472.59
2023-04-02T17:12:51.662Z,101463.31
2023-04-02T17:15:39.509Z,101474.38
2023-04-02T17:18:25.092Z,101488.38
2023-04-02T17:21:15.212Z,101476.66
2023-04-02T17:24:14.556Z,101482.66
2023-04-02T17:27:05.056Z,101475.53
2023-04-02T17:29:53.007Z,101494.25
2023-04-02T17:32:38.287Z,101494.59
2023-04-02T17:35:33.187Z,101511.56
2023-04-02T17:38:28.405Z,101519.66
2023-04-02T17:41:31.662Z,101496.03
2023-04-02T17:44:16.510Z,101502.50
2023-04-02T17:47:01.650Z,101521.09
2023-04-02T17:50:11.362Z,101521.53
2023-04-02T17:53:09.875Z,101533.22
2023-04-02T17:56:27.297Z,101566.41
2023-04-02T17:59:37.519Z,101572.63
2023-04-02T18:02:42.444Z,101593.53
2023-04-02T18:05:36.838Z,101593.41
2023-04-02T18:08:45.393Z,101591.03
2023-04-02T18:11:55.136Z,101590.91
2023-04-02T18:15:05.086Z,101620.34
2023-04-02T18:18:06.457Z,101622.00
2023-04-02T18:20:51.247Z,101641.50
2023-04-02T18:23:59.073Z,101655.94
2023-04-02T18:27:41.461Z,101660.84
2023-04-02T18:30:32.151Z,101663.88
2023-04-02T18:33:36.328Z,101675.94
2023-04-02T18:36:46.213Z,101688.94
2023-04-02T18:39:46.676Z,101689.50
2023-04-02T18:42:48.128Z,101689.00
2023-04-02T18:45:45.702Z,101723.09
2023-04-02T18:48:31.127Z,101714.19
2023-04-02T18:51:21.334Z,101705.78
2023-04-02T18:54:09.225Z,101715.47
2023-04-02T18:56:54.822Z,101722.09
2023-04-02T18:59:46.403Z,101720.50
2023-04-02T19:03:05.186Z,101722.97
2023-04-02T19:06:07.470Z,101743.28
2023-04-02T19:09:02.662Z,101740.34
2023-04-02T19:11:48.424Z,101751.09
2023-04-02T19:15:18.511Z,101773.16
2023-04-02T19:18:46.142Z,101772.19
2023-04-02T19:22:05.864Z,101795.28
2023-04-02T19:25:22.404Z,101792.03
2023-04-02T19:28:33.685Z,101801.53
2023-04-02T19:31:49.553Z,101809.25
2023-04-02T19:34:42.730Z,101796.41
2023-04-02T19:37:34.625Z,101782.78
2023-04-02T19:40:32.568Z,101809.41
2023-04-02T19:43:17.876Z,101784.19
2023-04-02T19:46:03.084Z,101790.50
2023-04-02T19:49:25.053Z,101798.59
2023-04-02T19:52:10.562Z,101820.94
2023-04-02T19:54:55.401Z,101819.78
2023-04-02T19:57:41.180Z,101826.97
2023-04-02T20:00:26.388Z,101840.34
2023-04-02T20:03:11.863Z,101852.09
2023-04-02T20:05:57.356Z,101847.03
2023-04-02T20:08:42.800Z,101853.84
2023-04-02T20:11:27.986Z,101871.25
2023-04-02T20:14:13.436Z,101862.41
2023-04-02T20:16:59.061Z,101869.41
2023-04-02T20:19:44.585Z,101884.69
2023-04-02T20:22:29.410Z,101894.16
2023-04-02T20:25:14.532Z,101883.13
2023-04-02T20:27:59.794Z,101870.25
2023-04-02T20:30:45.047Z,101866.13
2023-04-02T20:33:30.715Z,101853.28
2023-04-02T20:36:17.409Z,101869.44
2023-04-02T20:39:02.624Z,101886.09
2023-04-02T20:41:48.112Z,101879.09
2023-04-02T20:44:33.354Z,101883.69
2023-04-02T20:47:18.836Z,101866.53
2023-04-02T20:50:03.886Z,101878.69
2023-04-02T20:52:49.243Z,101889.06
2023-04-02T20:55:34.424Z,101872.00
2023-04-02T20:58:19.396Z,101890.78
2023-04-02T21:01:13.278Z,101891.72
2023-04-02T21:04:01.201Z,101909.72
2023-04-02T21:06:46.154Z,101901.63
2023-04-02T21:09:31.692Z,101914.47
2023-04-02T21:12:17.490Z,101909.25
2023-04-02T21:15:02.975Z,101917.75
2023-04-02T21:17:48.448Z,101929.09
2023-04-02T21:20:33.785Z,101930.78
2023-04-02T21:23:19.211Z,101951.41
2023-04-02T21:26:06.535Z,101934.22
2023-04-02T21:28:52.446Z,101950.50
2023-04-02T21:31:39.277Z,101952.47
2023-04-02T21:34:24.760Z,101962.56
2023-04-02T21:37:10.057Z,101970.59
2023-04-02T21:39:55.322Z,101979.09
2023-04-02T21:42:40.187Z,101991.22
2023-04-02T21:45:25.619Z,102007.56
2023-04-02T21:48:10.647Z,102000.16
2023-04-02T21:50:55.570Z,101995.16
2023-04-02T21:53:41.458Z,102004.63
2023-04-02T21:56:31.827Z,102010.13
2023-04-02T21:59:17.966Z,102004.50
2023-04-02T22:02:02.905Z,102012.53
2023-04-02T22:04:48.247Z,102020.16
2023-04-02T22:07:33.132Z,102028.25
2023-04-02T22:10:18.098Z,102033.56
2023-04-02T22:13:03.224Z,102037.63
2023-04-02T22:15:48.314Z,102034.69
2023-04-02T22:18:34.327Z,102048.59
2023-04-02T22:21:20.747Z,102048.94
2023-04-02T22:24:08.237Z,102053.22
2023-04-02T22:26:54.024Z,102047.03
2023-04-02T22:29:39.440Z,102052.66
2023-04-02T22:32:24.825Z,102066.16
2023-04-02T22:35:10.278Z,102067.38
2023-04-02T22:37:55.537Z,102082.03
2023-04-02T22:40:40.833Z,102079.00
2023-04-02T22:43:26.372Z,102075.34
2023-04-02T22:46:14.523Z,102101.38
2023-04-02T22:48:59.795Z,102107.38
2023-04-02T22:51:45.626Z,102113.28
2023-04-02T22:54:30.654Z,102107.25
2023-04-02T22:57:15.624Z,102116.13
2023-04-02T23:00:00.874Z,102134.31
2023-04-02T23:02:46.423Z,102141.31
2023-04-02T23:05:32.437Z,102146.16
2023-04-02T23:08:17.485Z,102155.09
2023-04-02T23:11:11.679Z,102166.25
2023-04-02T23:13:57.868Z,102149.47
2023-04-02T23:16:43.118Z,102148.34
2023-04-02T23:19:28.051Z,102151.41
2023-04-02T23:22:13.537Z,102150.72
2023-04-02T23:24:58.804Z,102160.41
2023-04-02T23:27:44.244Z,102167.81
2023-04-02T23:30:29.650Z,102161.03
2023-04-02T23:33:14.869Z,102161.03
2023-04-02T23:36:00.817Z,102162.38
2023-04-02T23:38:45.915Z,102168.88
2023-04-02T23:41:31.675Z,102167.25
2023-04-02T23:44:17.006Z,102182.69
2023-04-02T23:47:02.605Z,102190.47
2023-04-02T23:49:47.675Z,102192.72
2023-04-02T23:52:32.878Z,102194.09
2023-04-02T23:55:17.751Z,102201.06
2023-04-02T23:58:02.669Z,102205.13
